Xin Dan Dong — BPBY — position and weather

sailwx.info

Track history (hours):
 
Tides and Currents Weather Stations Pressure Air Temp Water Temp Dewpoint Dewpoint Depression Visibility Wind Speed Wind Dir Waves Ship Positions

Xin Dan Dong

Last reported at 2015-Sep-04 03:32 UTC. Time now 2015-Sep-04 03:44 UTC.
Position N 26°52' E 121°20'.

Length 263 m; draft 10.5 m.

Type: Cargo ship. MMSI: 413153000.

Date/timePositionNaut miles runAvg speedWind from/ knotsBaromVisibWave heightAir tempDewpointWater temp
2015-Sep-04 03:32N 26°52' E 121°20'12613.7
2015-Sep-03 18:18N 25°11' E 119°56'1212.7
2015-Sep-03 17:23N 25°02' E 119°47'1313.1
2015-Sep-03 16:25N 24°54' E 119°36'33013.1
2015-Sep-02 15:10N 21°60' E 114°30'812.6
2015-Sep-02 14:33N 21°59' E 114°22'1512.0
2015-Sep-02 13:20N 21°57' E 114°06'1311.6
2015-Sep-02 12:13N 22°02' E 113°53'710.4
2015-Sep-02 11:33N 22°08' E 113°51'1515.0
2015-Sep-02 10:33N 22°23' E 113°47'1514.7
2015-Sep-02 09:32N 22°37' E 113°42'3 0.5
2015-Sep-02 03:29N 22°39' E 113°41'0 0.0
2015-Sep-02 02:23N 22°39' E 113°41'0 0.0
2015-Sep-02 01:29N 22°39' E 113°41'2 0.1
2015-Sep-01 09:29N 22°38' E 113°42'1314.3
2015-Sep-01 08:33N 22°25' E 113°46'1313.0
2015-Sep-01 07:33N 22°13' E 113°50'1111.4
2015-Sep-01 06:33N 22°02' E 113°53'27 8.8
2015-Sep-01 03:30N 21°59' E 114°21'12612.4
2015-Aug-31 17:18N 22°36' E 116°32'9411.6
2015-Aug-31 09:08N 23°28' E 117°57'7114.9
2015-Aug-31 04:23N 24°17' E 118°53'2413.2
2015-Aug-31 02:32N 24°34' E 119°12'17412.4
2015-Aug-30 12:27N 26°48' E 121°16'55712.3
2015-Aug-28 15:22N 35°56' E 123°13'1312.8
2015-Aug-28 14:22N 36°08' E 123°13'1213.1
2015-Aug-28 13:28N 36°20' E 123°14'3913.2
2015-Aug-28 10:32N 36°59' E 123°14'2612.2
2015-Aug-28 08:22N 37°25' E 123°13'1012.1
2015-Aug-28 07:33N 37°33' E 123°04'1616.3
2015-Aug-28 06:33N 37°42' E 122°47'1414.1
2015-Aug-28 05:33N 37°53' E 122°37'1312.9
2015-Aug-28 04:33N 38°04' E 122°28'2512.6
2015-Aug-28 02:33N 38°26' E 122°12'2712.5
2015-Aug-28 00:24N 38°50' E 121°57'4 0.2
2015-Aug-27 02:32N 38°53' E 122°00'0 0.4
2015-Aug-27 01:29N 38°53' E 122°00'0 0.1
2015-Aug-26 21:23N 38°53' E 122°01'0 0.1
2015-Aug-26 20:33N 38°53' E 122°01'0 0.0
2015-Aug-26 19:23N 38°53' E 122°01'0 0.0
2015-Aug-26 18:33N 38°53' E 122°01'0 0.0
2015-Aug-26 17:33N 38°53' E 122°01'0 0.1
2015-Aug-26 16:23N 38°53' E 122°00'7 8.3
2015-Aug-26 15:33N 38°48' E 121°54'1110.8
2015-Aug-26 14:33N 38°39' E 121°47'1212.1
2015-Aug-26 13:33N 38°31' E 121°35'1212.2
2015-Aug-26 12:32N 38°28' E 121°20'1212.5
2015-Aug-26 11:33N 38°29' E 121°04'  
Track history (hours):
 
Tides and Currents Weather Stations Pressure Air Temp Water Temp Dewpoint Dewpoint Depression Visibility Wind Speed Wind Dir Waves Ship Positions

Xin Dan Dong

Last reported at 2015-Sep-04 03:32 UTC. Time now 2015-Sep-04 03:44 UTC.
Position N 26°52' E 121°20'.

Length 263 m; draft 10.5 m.

Type: Cargo ship. MMSI: 413153000.

Date/timePositionNaut miles runAvg speedWind from/ knotsBaromVisibWave heightAir tempDewpointWater temp
2015-Sep-04 03:32N 26°52' E 121°20'12613.7
2015-Sep-03 18:18N 25°11' E 119°56'1212.7
2015-Sep-03 17:23N 25°02' E 119°47'1313.1
2015-Sep-03 16:25N 24°54' E 119°36'33013.1
2015-Sep-02 15:10N 21°60' E 114°30'812.6
2015-Sep-02 14:33N 21°59' E 114°22'1512.0
2015-Sep-02 13:20N 21°57' E 114°06'1311.6
2015-Sep-02 12:13N 22°02' E 113°53'710.4
2015-Sep-02 11:33N 22°08' E 113°51'1515.0
2015-Sep-02 10:33N 22°23' E 113°47'1514.7
2015-Sep-02 09:32N 22°37' E 113°42'3 0.5
2015-Sep-02 03:29N 22°39' E 113°41'0 0.0
2015-Sep-02 02:23N 22°39' E 113°41'0 0.0
2015-Sep-02 01:29N 22°39' E 113°41'2 0.1
2015-Sep-01 09:29N 22°38' E 113°42'1314.3
2015-Sep-01 08:33N 22°25' E 113°46'1313.0
2015-Sep-01 07:33N 22°13' E 113°50'1111.4
2015-Sep-01 06:33N 22°02' E 113°53'27 8.8
2015-Sep-01 03:30N 21°59' E 114°21'12612.4
2015-Aug-31 17:18N 22°36' E 116°32'9411.6
2015-Aug-31 09:08N 23°28' E 117°57'7114.9
2015-Aug-31 04:23N 24°17' E 118°53'2413.2
2015-Aug-31 02:32N 24°34' E 119°12'17412.4
2015-Aug-30 12:27N 26°48' E 121°16'55712.3
2015-Aug-28 15:22N 35°56' E 123°13'1312.8
2015-Aug-28 14:22N 36°08' E 123°13'1213.1
2015-Aug-28 13:28N 36°20' E 123°14'3913.2
2015-Aug-28 10:32N 36°59' E 123°14'2612.2
2015-Aug-28 08:22N 37°25' E 123°13'1012.1
2015-Aug-28 07:33N 37°33' E 123°04'1616.3
2015-Aug-28 06:33N 37°42' E 122°47'1414.1
2015-Aug-28 05:33N 37°53' E 122°37'1312.9
2015-Aug-28 04:33N 38°04' E 122°28'2512.6
2015-Aug-28 02:33N 38°26' E 122°12'2712.5
2015-Aug-28 00:24N 38°50' E 121°57'4 0.2
2015-Aug-27 02:32N 38°53' E 122°00'0 0.4
2015-Aug-27 01:29N 38°53' E 122°00'0 0.1
2015-Aug-26 21:23N 38°53' E 122°01'0 0.1
2015-Aug-26 20:33N 38°53' E 122°01'0 0.0
2015-Aug-26 19:23N 38°53' E 122°01'0 0.0
2015-Aug-26 18:33N 38°53' E 122°01'0 0.0
2015-Aug-26 17:33N 38°53' E 122°01'0 0.1
2015-Aug-26 16:23N 38°53' E 122°00'7 8.3
2015-Aug-26 15:33N 38°48' E 121°54'1110.8
2015-Aug-26 14:33N 38°39' E 121°47'1212.1
2015-Aug-26 13:33N 38°31' E 121°35'1212.2
2015-Aug-26 12:32N 38°28' E 121°20'1212.5
2015-Aug-26 11:33N 38°29' E 121°04'  

Dump ship's entire track history